Etusivu
METAR-TAF:

METAR-TAF

Lentoasemat :

North Battleford, Saskatchewan, Kanada

Leveyspiiri: 52-46N, Pituuspiiri: 108-15W, korkeus merenpinnasta: 548 m

Tämänhetkinen sää

Tämä raportti tehtiin 1 tunti ja 10 minuuttia sitten, kello 17.00 UTC
Tuuli 9 kn idästä/kaakosta
Lämpötila -4°C
Kosteus 80%
Ilmanpaine 1005 hPa
Näkyvyys: 14.5 km
selkeää

METAR: CYQW 141700Z AUTO 11009KT 9SM CLR M04/M07 A2968 RMK SLP083

Aika: 12:10 (18:10 UTC)

Sääennuste

Tämä raportti tehtiin 32 minuuttia sitten, kello 17.38 UTC
Ennuste voimassa 14. päivästä klo 18 UTC - 15. päivään klo 06 UTC
Tuuli 10 kn idästä/kaakosta
Näkyvyys: 10 km
Hajanaisia pilviä 12000 ft:n korkeudessa
Hajonneita pilviä 24000 ft:n korkeudessa
Tulossa
15. päivästä klo 02 UTC - 15. päivään klo 04 UTC
Tuuli 10 kn lounaasta puuskistuen 20 kn:hen

TAF: CYQW 141738Z 1418/1506 12010KT P6SM SCT120 BKN240 BECMG 1502/1504 22010G20KT RMK FCST BASED ON AUTO OBS. NXT FCST BY 150000Z

Säähavainnot ja -ennusteet yli 4000 lentoasemalta (METAR- ja TAF-raportit).

Käytössä olevat sääasemat on merkitty karttaan keltaisilla ja punaisilla pisteillä.

Aseta hiiri pisteen päälle nähdäksesi sääaseman nimen.

Klikkaa sitten nähdäksesi säähavainnot ja -ennusteet.

Kartan vaihtaminen: klikkaa mustalla rastilla varustettuja vihreitä pisteitä, niin voit zoomata sisään; viivalla varustettua vihreää pistettä, niin voit zoomata ulos tai vihreitä nuolia, niin pääset viereisille kartoille.


METAR-TAF: